sensor_id;sensor_type;location;lat;lon;timestamp;P1;durP1;ratioP1;P2;durP2;ratioP2
13795;SDS011;40911;51.552;9.874;2023-08-21T00:01:13;6.40;;;3.90;;
13795;SDS011;40911;51.552;9.874;2023-08-21T00:05:57;5.38;;;3.60;;
13795;SDS011;40911;51.552;9.874;2023-08-21T00:08:20;6.05;;;3.83;;
13795;SDS011;40911;51.552;9.874;2023-08-21T00:10:42;6.90;;;3.40;;
13795;SDS011;40911;51.552;9.874;2023-08-21T00:13:03;5.32;;;3.60;;
13795;SDS011;40911;51.552;9.874;2023-08-21T00:15:25;5.72;;;3.70;;
13795;SDS011;40911;51.552;9.874;2023-08-21T00:17:47;6.50;;;4.05;;
13795;SDS011;40911;51.552;9.874;2023-08-21T00:20:09;8.13;;;3.60;;
13795;SDS011;40911;51.552;9.874;2023-08-21T00:22:32;5.85;;;3.55;;
13795;SDS011;40911;51.552;9.874;2023-08-21T00:24:55;7.55;;;3.70;;
13795;SDS011;40911;51.552;9.874;2023-08-21T00:27:16;6.68;;;3.65;;
13795;SDS011;40911;51.552;9.874;2023-08-21T00:29:38;7.65;;;3.78;;
13795;SDS011;40911;51.552;9.874;2023-08-21T00:32:00;6.43;;;3.47;;
13795;SDS011;40911;51.552;9.874;2023-08-21T00:34:21;9.13;;;3.80;;
13795;SDS011;40911;51.552;9.874;2023-08-21T00:36:43;4.75;;;3.50;;
13795;SDS011;40911;51.552;9.874;2023-08-21T00:39:05;6.00;;;3.95;;
13795;SDS011;40911;51.552;9.874;2023-08-21T00:41:28;5.47;;;3.75;;
13795;SDS011;40911;51.552;9.874;2023-08-21T00:43:49;7.38;;;3.30;;
13795;SDS011;40911;51.552;9.874;2023-08-21T00:46:11;4.93;;;3.38;;
13795;SDS011;40911;51.552;9.874;2023-08-21T00:48:33;8.40;;;3.67;;
13795;SDS011;40911;51.552;9.874;2023-08-21T00:50:55;5.40;;;3.33;;
13795;SDS011;40911;51.552;9.874;2023-08-21T00:53:17;7.88;;;3.80;;
13795;SDS011;40911;51.552;9.874;2023-08-21T00:55:39;6.05;;;3.70;;
13795;SDS011;40911;51.552;9.874;2023-08-21T00:58:03;6.75;;;3.65;;
13795;SDS011;40911;51.552;9.874;2023-08-21T01:00:26;7.53;;;3.80;;
13795;SDS011;40911;51.552;9.874;2023-08-21T01:02:50;9.95;;;5.10;;
13795;SDS011;40911;51.552;9.874;2023-08-21T01:05:11;6.20;;;3.65;;
13795;SDS011;40911;51.552;9.874;2023-08-21T01:07:34;5.43;;;3.70;;
13795;SDS011;40911;51.552;9.874;2023-08-21T01:10:06;6.35;;;3.95;;
13795;SDS011;40911;51.552;9.874;2023-08-21T01:12:33;6.95;;;3.80;;
13795;SDS011;40911;51.552;9.874;2023-08-21T01:14:59;7.20;;;4.07;;
13795;SDS011;40911;51.552;9.874;2023-08-21T01:17:23;8.65;;;3.75;;
13795;SDS011;40911;51.552;9.874;2023-08-21T01:19:46;6.05;;;3.70;;
13795;SDS011;40911;51.552;9.874;2023-08-21T01:22:10;5.25;;;3.80;;
13795;SDS011;40911;51.552;9.874;2023-08-21T01:24:34;4.85;;;3.38;;
13795;SDS011;40911;51.552;9.874;2023-08-21T01:26:55;9.50;;;3.50;;
13795;SDS011;40911;51.552;9.874;2023-08-21T01:29:17;4.32;;;3.08;;
13795;SDS011;40911;51.552;9.874;2023-08-21T01:31:39;7.32;;;3.13;;
13795;SDS011;40911;51.552;9.874;2023-08-21T01:34:04;5.43;;;3.38;;
13795;SDS011;40911;51.552;9.874;2023-08-21T01:36:30;7.63;;;3.25;;
13795;SDS011;40911;51.552;9.874;2023-08-21T01:38:52;7.70;;;3.38;;
13795;SDS011;40911;51.552;9.874;2023-08-21T01:41:15;6.82;;;3.28;;
13795;SDS011;40911;51.552;9.874;2023-08-21T01:43:37;4.60;;;3.60;;
13795;SDS011;40911;51.552;9.874;2023-08-21T01:46:01;6.70;;;3.28;;
13795;SDS011;40911;51.552;9.874;2023-08-21T01:48:23;5.82;;;3.33;;
13795;SDS011;40911;51.552;9.874;2023-08-21T01:50:45;4.88;;;3.30;;
13795;SDS011;40911;51.552;9.874;2023-08-21T01:53:06;5.22;;;2.97;;
13795;SDS011;40911;51.552;9.874;2023-08-21T01:55:28;6.25;;;3.45;;
13795;SDS011;40911;51.552;9.874;2023-08-21T01:57:51;4.90;;;3.05;;
13795;SDS011;40911;51.552;9.874;2023-08-21T02:00:13;7.20;;;2.70;;
13795;SDS011;40911;51.552;9.874;2023-08-21T02:02:35;3.38;;;2.67;;
13795;SDS011;40911;51.552;9.874;2023-08-21T02:04:57;4.70;;;2.38;;
13795;SDS011;40911;51.552;9.874;2023-08-21T02:07:18;3.13;;;2.58;;
13795;SDS011;40911;51.552;9.874;2023-08-21T02:09:40;6.18;;;2.72;;
13795;SDS011;40911;51.552;9.874;2023-08-21T02:12:02;5.35;;;2.50;;
13795;SDS011;40911;51.552;9.874;2023-08-21T02:14:25;2.55;;;1.95;;
13795;SDS011;40911;51.552;9.874;2023-08-21T02:16:47;2.97;;;2.30;;
13795;SDS011;40911;51.552;9.874;2023-08-21T02:19:09;4.22;;;2.33;;
13795;SDS011;40911;51.552;9.874;2023-08-21T02:21:31;4.20;;;2.50;;
13795;SDS011;40911;51.552;9.874;2023-08-21T02:23:53;3.90;;;2.40;;
13795;SDS011;40911;51.552;9.874;2023-08-21T02:26:14;2.58;;;2.13;;
13795;SDS011;40911;51.552;9.874;2023-08-21T02:28:36;3.90;;;2.58;;
13795;SDS011;40911;51.552;9.874;2023-08-21T02:30:59;2.42;;;2.17;;
13795;SDS011;40911;51.552;9.874;2023-08-21T02:33:21;3.38;;;2.17;;
13795;SDS011;40911;51.552;9.874;2023-08-21T02:35:43;5.70;;;2.22;;
13795;SDS011;40911;51.552;9.874;2023-08-21T02:38:04;5.88;;;2.53;;
13795;SDS011;40911;51.552;9.874;2023-08-21T02:40:26;5.88;;;2.47;;
13795;SDS011;40911;51.552;9.874;2023-08-21T02:42:48;3.08;;;2.25;;
13795;SDS011;40911;51.552;9.874;2023-08-21T02:45:09;5.47;;;2.60;;
13795;SDS011;40911;51.552;9.874;2023-08-21T02:47:33;6.57;;;2.30;;
13795;SDS011;40911;51.552;9.874;2023-08-21T02:49:55;6.47;;;2.58;;
13795;SDS011;40911;51.552;9.874;2023-08-21T02:52:17;6.35;;;2.42;;
13795;SDS011;40911;51.552;9.874;2023-08-21T02:54:39;5.55;;;2.58;;
13795;SDS011;40911;51.552;9.874;2023-08-21T02:57:00;3.97;;;2.50;;
13795;SDS011;40911;51.552;9.874;2023-08-21T02:59:22;4.88;;;2.50;;
13795;SDS011;40911;51.552;9.874;2023-08-21T03:01:44;4.72;;;2.53;;
13795;SDS011;40911;51.552;9.874;2023-08-21T03:04:07;4.47;;;2.17;;
13795;SDS011;40911;51.552;9.874;2023-08-21T03:06:28;6.10;;;2.30;;
13795;SDS011;40911;51.552;9.874;2023-08-21T03:08:50;4.15;;;2.50;;
13795;SDS011;40911;51.552;9.874;2023-08-21T03:11:12;6.63;;;2.33;;
13795;SDS011;40911;51.552;9.874;2023-08-21T03:13:34;4.63;;;2.60;;
13795;SDS011;40911;51.552;9.874;2023-08-21T03:15:55;6.28;;;2.60;;
13795;SDS011;40911;51.552;9.874;2023-08-21T03:18:17;3.10;;;2.10;;
13795;SDS011;40911;51.552;9.874;2023-08-21T03:20:45;5.10;;;2.55;;
13795;SDS011;40911;51.552;9.874;2023-08-21T03:23:06;3.90;;;2.40;;
13795;SDS011;40911;51.552;9.874;2023-08-21T03:25:28;5.95;;;2.90;;
13795;SDS011;40911;51.552;9.874;2023-08-21T03:27:50;5.65;;;2.75;;
13795;SDS011;40911;51.552;9.874;2023-08-21T03:30:11;5.07;;;2.60;;
13795;SDS011;40911;51.552;9.874;2023-08-21T03:32:35;3.95;;;2.47;;
13795;SDS011;40911;51.552;9.874;2023-08-21T03:34:56;3.75;;;2.33;;
13795;SDS011;40911;51.552;9.874;2023-08-21T03:37:19;3.28;;;2.50;;
13795;SDS011;40911;51.552;9.874;2023-08-21T03:39:41;4.72;;;2.40;;
13795;SDS011;40911;51.552;9.874;2023-08-21T03:42:03;6.55;;;2.85;;
13795;SDS011;40911;51.552;9.874;2023-08-21T03:44:25;4.25;;;2.67;;
13795;SDS011;40911;51.552;9.874;2023-08-21T03:46:46;6.25;;;3.22;;
13795;SDS011;40911;51.552;9.874;2023-08-21T03:49:08;3.45;;;2.42;;
13795;SDS011;40911;51.552;9.874;2023-08-21T03:51:30;5.32;;;2.70;;
13795;SDS011;40911;51.552;9.874;2023-08-21T03:53:53;7.10;;;2.70;;
13795;SDS011;40911;51.552;9.874;2023-08-21T03:56:14;4.40;;;2.60;;
13795;SDS011;40911;51.552;9.874;2023-08-21T03:58:36;3.35;;;2.70;;
13795;SDS011;40911;51.552;9.874;2023-08-21T04:00:58;3.25;;;2.70;;
13795;SDS011;40911;51.552;9.874;2023-08-21T04:03:19;4.93;;;3.00;;
13795;SDS011;40911;51.552;9.874;2023-08-21T04:05:41;4.43;;;2.40;;
13795;SDS011;40911;51.552;9.874;2023-08-21T04:08:03;4.47;;;2.72;;
13795;SDS011;40911;51.552;9.874;2023-08-21T04:10:26;5.88;;;2.67;;
13795;SDS011;40911;51.552;9.874;2023-08-21T04:12:48;6.32;;;2.45;;
13795;SDS011;40911;51.552;9.874;2023-08-21T04:15:10;6.18;;;2.58;;
13795;SDS011;40911;51.552;9.874;2023-08-21T04:17:31;4.85;;;2.63;;
13795;SDS011;40911;51.552;9.874;2023-08-21T04:22:14;4.68;;;2.50;;
13795;SDS011;40911;51.552;9.874;2023-08-21T04:24:36;3.58;;;2.50;;
13795;SDS011;40911;51.552;9.874;2023-08-21T04:29:20;2.97;;;2.38;;
13795;SDS011;40911;51.552;9.874;2023-08-21T04:31:42;5.78;;;2.63;;
13795;SDS011;40911;51.552;9.874;2023-08-21T04:36:25;4.90;;;2.80;;
13795;SDS011;40911;51.552;9.874;2023-08-21T04:41:09;4.85;;;2.63;;
13795;SDS011;40911;51.552;9.874;2023-08-21T04:43:32;5.25;;;2.72;;
13795;SDS011;40911;51.552;9.874;2023-08-21T04:45:54;5.43;;;2.80;;
13795;SDS011;40911;51.552;9.874;2023-08-21T04:50:37;4.32;;;2.45;;
13795;SDS011;40911;51.552;9.874;2023-08-21T04:52:59;3.90;;;2.65;;
13795;SDS011;40911;51.552;9.874;2023-08-21T04:57:42;3.67;;;2.63;;
13795;SDS011;40911;51.552;9.874;2023-08-21T05:02:27;5.22;;;2.78;;
13795;SDS011;40911;51.552;9.874;2023-08-21T05:07:10;10.13;;;3.58;;
13795;SDS011;40911;51.552;9.874;2023-08-21T05:11:54;5.15;;;2.58;;
13795;SDS011;40911;51.552;9.874;2023-08-21T05:14:16;3.92;;;2.90;;
13795;SDS011;40911;51.552;9.874;2023-08-21T05:16:40;4.63;;;2.70;;
13795;SDS011;40911;51.552;9.874;2023-08-21T05:19:02;7.78;;;2.60;;
13795;SDS011;40911;51.552;9.874;2023-08-21T05:21:24;5.47;;;2.80;;
13795;SDS011;40911;51.552;9.874;2023-08-21T05:23:46;6.68;;;3.17;;
13795;SDS011;40911;51.552;9.874;2023-08-21T05:28:29;8.70;;;3.03;;
13795;SDS011;40911;51.552;9.874;2023-08-21T05:33:14;4.95;;;2.92;;
13795;SDS011;40911;51.552;9.874;2023-08-21T05:35:36;5.03;;;3.00;;
13795;SDS011;40911;51.552;9.874;2023-08-21T05:37:58;4.82;;;2.67;;
13795;SDS011;40911;51.552;9.874;2023-08-21T05:40:20;5.75;;;2.47;;
13795;SDS011;40911;51.552;9.874;2023-08-21T05:45:03;6.60;;;2.75;;
13795;SDS011;40911;51.552;9.874;2023-08-21T05:47:25;6.97;;;2.60;;
13795;SDS011;40911;51.552;9.874;2023-08-21T05:52:10;4.35;;;2.53;;
13795;SDS011;40911;51.552;9.874;2023-08-21T05:54:31;5.03;;;3.10;;
13795;SDS011;40911;51.552;9.874;2023-08-21T05:56:53;7.43;;;2.50;;
13795;SDS011;40911;51.552;9.874;2023-08-21T05:59:20;4.45;;;2.95;;
13795;SDS011;40911;51.552;9.874;2023-08-21T06:01:48;4.80;;;2.83;;
13795;SDS011;40911;51.552;9.874;2023-08-21T06:04:10;4.72;;;2.83;;
13795;SDS011;40911;51.552;9.874;2023-08-21T06:06:33;7.63;;;2.88;;
13795;SDS011;40911;51.552;9.874;2023-08-21T06:08:54;5.47;;;2.50;;
13795;SDS011;40911;51.552;9.874;2023-08-21T06:11:16;7.85;;;2.60;;
13795;SDS011;40911;51.552;9.874;2023-08-21T06:13:38;4.35;;;2.67;;
13795;SDS011;40911;51.552;9.874;2023-08-21T06:15:59;7.35;;;2.75;;
13795;SDS011;40911;51.552;9.874;2023-08-21T06:18:21;5.80;;;2.78;;
13795;SDS011;40911;51.552;9.874;2023-08-21T06:20:43;4.68;;;2.58;;
13795;SDS011;40911;51.552;9.874;2023-08-21T06:23:06;5.53;;;2.33;;
13795;SDS011;40911;51.552;9.874;2023-08-21T06:25:28;6.32;;;2.40;;
13795;SDS011;40911;51.552;9.874;2023-08-21T06:27:50;4.55;;;2.78;;
13795;SDS011;40911;51.552;9.874;2023-08-21T06:30:12;6.70;;;2.30;;
13795;SDS011;40911;51.552;9.874;2023-08-21T06:32:36;4.72;;;2.30;;
13795;SDS011;40911;51.552;9.874;2023-08-21T06:34:58;5.88;;;2.08;;
13795;SDS011;40911;51.552;9.874;2023-08-21T06:37:20;3.92;;;2.20;;
13795;SDS011;40911;51.552;9.874;2023-08-21T06:39:43;5.18;;;2.28;;
13795;SDS011;40911;51.552;9.874;2023-08-21T06:42:05;4.22;;;2.05;;
13795;SDS011;40911;51.552;9.874;2023-08-21T06:44:27;3.38;;;1.95;;
13795;SDS011;40911;51.552;9.874;2023-08-21T06:46:49;4.03;;;2.10;;
13795;SDS011;40911;51.552;9.874;2023-08-21T06:49:10;4.47;;;2.10;;
13795;SDS011;40911;51.552;9.874;2023-08-21T06:51:32;3.15;;;2.03;;
13795;SDS011;40911;51.552;9.874;2023-08-21T06:53:54;5.07;;;1.48;;
13795;SDS011;40911;51.552;9.874;2023-08-21T06:56:17;3.25;;;1.95;;
13795;SDS011;40911;51.552;9.874;2023-08-21T06:58:38;5.30;;;1.98;;
13795;SDS011;40911;51.552;9.874;2023-08-21T07:01:00;4.78;;;1.83;;
13795;SDS011;40911;51.552;9.874;2023-08-21T07:03:22;3.53;;;1.88;;
13795;SDS011;40911;51.552;9.874;2023-08-21T07:05:46;3.83;;;1.67;;
13795;SDS011;40911;51.552;9.874;2023-08-21T07:08:08;3.50;;;1.70;;
13795;SDS011;40911;51.552;9.874;2023-08-21T07:10:30;3.13;;;1.88;;
13795;SDS011;40911;51.552;9.874;2023-08-21T07:12:57;5.88;;;2.13;;
13795;SDS011;40911;51.552;9.874;2023-08-21T07:15:19;3.08;;;1.90;;
13795;SDS011;40911;51.552;9.874;2023-08-21T07:17:41;6.13;;;1.90;;
13795;SDS011;40911;51.552;9.874;2023-08-21T07:20:03;4.03;;;2.00;;
13795;SDS011;40911;51.552;9.874;2023-08-21T07:22:25;6.63;;;1.90;;
13795;SDS011;40911;51.552;9.874;2023-08-21T07:24:47;4.53;;;2.30;;
13795;SDS011;40911;51.552;9.874;2023-08-21T07:27:09;4.72;;;1.80;;
13795;SDS011;40911;51.552;9.874;2023-08-21T07:29:32;3.83;;;1.85;;
13795;SDS011;40911;51.552;9.874;2023-08-21T07:31:53;3.80;;;1.90;;
13795;SDS011;40911;51.552;9.874;2023-08-21T07:34:15;6.07;;;1.92;;
13795;SDS011;40911;51.552;9.874;2023-08-21T07:36:37;3.13;;;1.83;;
13795;SDS011;40911;51.552;9.874;2023-08-21T07:38:58;3.33;;;1.90;;
13795;SDS011;40911;51.552;9.874;2023-08-21T07:41:20;3.85;;;1.77;;
13795;SDS011;40911;51.552;9.874;2023-08-21T07:43:42;3.53;;;2.08;;
13795;SDS011;40911;51.552;9.874;2023-08-21T07:46:06;4.13;;;2.28;;
13795;SDS011;40911;51.552;9.874;2023-08-21T07:48:29;3.17;;;2.00;;
13795;SDS011;40911;51.552;9.874;2023-08-21T07:50:51;5.80;;;2.33;;
13795;SDS011;40911;51.552;9.874;2023-08-21T07:53:14;3.42;;;1.60;;
13795;SDS011;40911;51.552;9.874;2023-08-21T07:55:35;3.40;;;1.90;;
13795;SDS011;40911;51.552;9.874;2023-08-21T07:57:57;4.63;;;1.92;;
13795;SDS011;40911;51.552;9.874;2023-08-21T08:00:19;4.88;;;1.80;;
13795;SDS011;40911;51.552;9.874;2023-08-21T08:02:42;6.07;;;1.63;;
13795;SDS011;40911;51.552;9.874;2023-08-21T08:05:05;3.75;;;1.92;;
13795;SDS011;40911;51.552;9.874;2023-08-21T08:07:27;4.00;;;1.73;;
13795;SDS011;40911;51.552;9.874;2023-08-21T08:09:49;2.95;;;2.10;;
13795;SDS011;40911;51.552;9.874;2023-08-21T08:12:11;6.47;;;2.50;;
13795;SDS011;40911;51.552;9.874;2023-08-21T08:14:33;7.18;;;2.10;;
13795;SDS011;40911;51.552;9.874;2023-08-21T08:16:54;4.00;;;1.80;;
13795;SDS011;40911;51.552;9.874;2023-08-21T08:19:17;8.15;;;2.00;;
13795;SDS011;40911;51.552;9.874;2023-08-21T08:21:39;6.07;;;2.00;;
13795;SDS011;40911;51.552;9.874;2023-08-21T08:24:01;4.85;;;2.20;;
13795;SDS011;40911;51.552;9.874;2023-08-21T08:26:23;4.22;;;2.20;;
13795;SDS011;40911;51.552;9.874;2023-08-21T08:28:44;5.55;;;2.13;;
13795;SDS011;40911;51.552;9.874;2023-08-21T08:31:06;4.88;;;2.28;;
13795;SDS011;40911;51.552;9.874;2023-08-21T08:33:35;3.30;;;2.08;;
13795;SDS011;40911;51.552;9.874;2023-08-21T08:35:58;5.35;;;2.67;;
13795;SDS011;40911;51.552;9.874;2023-08-21T08:38:19;5.00;;;2.50;;
13795;SDS011;40911;51.552;9.874;2023-08-21T08:40:43;5.40;;;2.33;;
13795;SDS011;40911;51.552;9.874;2023-08-21T08:43:05;4.72;;;2.28;;
13795;SDS011;40911;51.552;9.874;2023-08-21T08:45:28;3.42;;;2.28;;
13795;SDS011;40911;51.552;9.874;2023-08-21T08:47:51;5.10;;;2.40;;
13795;SDS011;40911;51.552;9.874;2023-08-21T08:50:15;4.90;;;2.10;;
13795;SDS011;40911;51.552;9.874;2023-08-21T08:52:39;4.53;;;1.98;;
13795;SDS011;40911;51.552;9.874;2023-08-21T08:55:01;4.50;;;1.60;;
13795;SDS011;40911;51.552;9.874;2023-08-21T08:57:23;5.30;;;2.08;;
13795;SDS011;40911;51.552;9.874;2023-08-21T08:59:45;4.10;;;1.92;;
13795;SDS011;40911;51.552;9.874;2023-08-21T09:02:07;5.97;;;2.00;;
13795;SDS011;40911;51.552;9.874;2023-08-21T09:04:28;6.15;;;2.05;;
13795;SDS011;40911;51.552;9.874;2023-08-21T09:06:50;3.83;;;2.13;;
13795;SDS011;40911;51.552;9.874;2023-08-21T09:09:13;7.75;;;2.17;;
13795;SDS011;40911;51.552;9.874;2023-08-21T09:11:35;3.65;;;1.77;;
13795;SDS011;40911;51.552;9.874;2023-08-21T09:13:58;4.88;;;2.05;;
13795;SDS011;40911;51.552;9.874;2023-08-21T09:16:20;7.43;;;2.28;;
13795;SDS011;40911;51.552;9.874;2023-08-21T09:18:46;3.28;;;1.98;;
13795;SDS011;40911;51.552;9.874;2023-08-21T09:21:08;4.72;;;2.13;;
13795;SDS011;40911;51.552;9.874;2023-08-21T09:23:30;5.53;;;2.53;;
13795;SDS011;40911;51.552;9.874;2023-08-21T09:25:53;5.40;;;2.53;;
13795;SDS011;40911;51.552;9.874;2023-08-21T09:28:15;4.00;;;2.33;;
13795;SDS011;40911;51.552;9.874;2023-08-21T09:30:43;6.53;;;2.20;;
13795;SDS011;40911;51.552;9.874;2023-08-21T09:33:07;4.18;;;1.92;;
13795;SDS011;40911;51.552;9.874;2023-08-21T09:35:31;5.63;;;2.30;;
13795;SDS011;40911;51.552;9.874;2023-08-21T09:37:54;4.35;;;2.10;;
13795;SDS011;40911;51.552;9.874;2023-08-21T09:40:15;6.50;;;2.15;;
13795;SDS011;40911;51.552;9.874;2023-08-21T09:42:39;4.85;;;1.95;;
13795;SDS011;40911;51.552;9.874;2023-08-21T09:45:00;3.97;;;2.28;;
13795;SDS011;40911;51.552;9.874;2023-08-21T09:47:24;5.75;;;2.83;;
13795;SDS011;40911;51.552;9.874;2023-08-21T09:49:47;7.95;;;2.70;;
13795;SDS011;40911;51.552;9.874;2023-08-21T09:52:09;4.55;;;2.30;;
13795;SDS011;40911;51.552;9.874;2023-08-21T09:54:31;4.60;;;2.42;;
13795;SDS011;40911;51.552;9.874;2023-08-21T09:56:54;4.38;;;2.35;;
13795;SDS011;40911;51.552;9.874;2023-08-21T09:59:18;5.05;;;2.60;;
13795;SDS011;40911;51.552;9.874;2023-08-21T10:01:40;3.13;;;2.35;;
13795;SDS011;40911;51.552;9.874;2023-08-21T10:04:03;5.72;;;2.15;;
13795;SDS011;40911;51.552;9.874;2023-08-21T10:06:26;4.55;;;2.20;;
13795;SDS011;40911;51.552;9.874;2023-08-21T10:08:48;4.60;;;2.47;;
13795;SDS011;40911;51.552;9.874;2023-08-21T10:11:14;5.53;;;2.40;;
13795;SDS011;40911;51.552;9.874;2023-08-21T10:13:41;4.97;;;2.40;;
13795;SDS011;40911;51.552;9.874;2023-08-21T10:16:04;5.95;;;2.13;;
13795;SDS011;40911;51.552;9.874;2023-08-21T10:18:29;7.22;;;1.80;;
13795;SDS011;40911;51.552;9.874;2023-08-21T10:20:52;4.30;;;1.92;;
13795;SDS011;40911;51.552;9.874;2023-08-21T10:23:24;11.23;;;2.08;;
13795;SDS011;40911;51.552;9.874;2023-08-21T10:25:47;4.63;;;2.75;;
13795;SDS011;40911;51.552;9.874;2023-08-21T10:28:08;3.67;;;2.10;;
13795;SDS011;40911;51.552;9.874;2023-08-21T10:30:30;3.38;;;2.20;;
13795;SDS011;40911;51.552;9.874;2023-08-21T10:32:54;5.53;;;2.50;;
13795;SDS011;40911;51.552;9.874;2023-08-21T10:35:18;5.97;;;2.00;;
13795;SDS011;40911;51.552;9.874;2023-08-21T10:40:32;4.82;;;2.90;;
13795;SDS011;40911;51.552;9.874;2023-08-21T10:42:54;4.97;;;2.42;;
13795;SDS011;40911;51.552;9.874;2023-08-21T10:45:16;3.72;;;2.25;;
13795;SDS011;40911;51.552;9.874;2023-08-21T10:47:37;4.47;;;2.20;;
13795;SDS011;40911;51.552;9.874;2023-08-21T10:50:01;4.30;;;2.20;;
13795;SDS011;40911;51.552;9.874;2023-08-21T10:52:25;4.10;;;1.90;;
13795;SDS011;40911;51.552;9.874;2023-08-21T10:54:49;4.18;;;2.00;;
13795;SDS011;40911;51.552;9.874;2023-08-21T10:57:11;5.78;;;1.90;;
13795;SDS011;40911;51.552;9.874;2023-08-21T10:59:33;4.32;;;2.35;;
13795;SDS011;40911;51.552;9.874;2023-08-21T11:01:55;4.90;;;1.70;;
13795;SDS011;40911;51.552;9.874;2023-08-21T11:04:16;4.22;;;2.00;;
13795;SDS011;40911;51.552;9.874;2023-08-21T11:06:39;5.20;;;2.20;;
13795;SDS011;40911;51.552;9.874;2023-08-21T11:09:02;4.78;;;2.42;;
13795;SDS011;40911;51.552;9.874;2023-08-21T11:11:24;7.13;;;2.47;;
13795;SDS011;40911;51.552;9.874;2023-08-21T11:13:51;6.80;;;2.35;;
13795;SDS011;40911;51.552;9.874;2023-08-21T11:16:14;6.65;;;2.50;;
13795;SDS011;40911;51.552;9.874;2023-08-21T11:18:36;3.63;;;1.83;;
13795;SDS011;40911;51.552;9.874;2023-08-21T11:21:05;5.03;;;2.20;;
13795;SDS011;40911;51.552;9.874;2023-08-21T11:23:32;11.30;;;2.13;;
13795;SDS011;40911;51.552;9.874;2023-08-21T11:25:55;10.63;;;2.20;;
13795;SDS011;40911;51.552;9.874;2023-08-21T11:28:16;4.03;;;1.70;;
13795;SDS011;40911;51.552;9.874;2023-08-21T11:30:38;3.03;;;1.88;;
13795;SDS011;40911;51.552;9.874;2023-08-21T11:33:06;2.75;;;1.70;;
13795;SDS011;40911;51.552;9.874;2023-08-21T11:35:29;4.70;;;1.70;;
13795;SDS011;40911;51.552;9.874;2023-08-21T11:37:50;6.78;;;2.30;;
13795;SDS011;40911;51.552;9.874;2023-08-21T11:40:13;4.25;;;2.38;;
13795;SDS011;40911;51.552;9.874;2023-08-21T11:42:35;3.75;;;2.60;;
13795;SDS011;40911;51.552;9.874;2023-08-21T11:44:57;3.58;;;2.20;;
13795;SDS011;40911;51.552;9.874;2023-08-21T11:47:20;5.63;;;2.83;;
13795;SDS011;40911;51.552;9.874;2023-08-21T11:49:43;5.13;;;2.30;;
13795;SDS011;40911;51.552;9.874;2023-08-21T11:52:07;5.75;;;2.40;;
13795;SDS011;40911;51.552;9.874;2023-08-21T11:54:31;7.20;;;2.35;;
13795;SDS011;40911;51.552;9.874;2023-08-21T11:56:55;3.72;;;2.35;;
13795;SDS011;40911;51.552;9.874;2023-08-21T11:59:26;4.22;;;2.60;;
13795;SDS011;40911;51.552;9.874;2023-08-21T12:01:51;4.00;;;2.40;;
13795;SDS011;40911;51.552;9.874;2023-08-21T12:04:16;4.38;;;2.47;;
13795;SDS011;40911;51.552;9.874;2023-08-21T12:06:42;3.80;;;2.60;;
13795;SDS011;40911;51.552;9.874;2023-08-21T12:09:05;6.18;;;2.80;;
13795;SDS011;40911;51.552;9.874;2023-08-21T12:11:26;6.82;;;3.13;;
13795;SDS011;40911;51.552;9.874;2023-08-21T12:13:49;7.15;;;2.83;;
13795;SDS011;40911;51.552;9.874;2023-08-21T12:16:11;7.75;;;2.72;;
13795;SDS011;40911;51.552;9.874;2023-08-21T12:18:33;5.22;;;2.80;;
13795;SDS011;40911;51.552;9.874;2023-08-21T12:20:55;5.05;;;2.75;;
13795;SDS011;40911;51.552;9.874;2023-08-21T12:23:17;5.05;;;2.83;;
13795;SDS011;40911;51.552;9.874;2023-08-21T12:25:39;4.95;;;2.97;;
13795;SDS011;40911;51.552;9.874;2023-08-21T12:28:02;6.05;;;2.80;;
13795;SDS011;40911;51.552;9.874;2023-08-21T12:30:25;5.47;;;2.83;;
13795;SDS011;40911;51.552;9.874;2023-08-21T12:32:47;3.75;;;3.10;;
13795;SDS011;40911;51.552;9.874;2023-08-21T12:35:09;3.97;;;2.50;;
13795;SDS011;40911;51.552;9.874;2023-08-21T12:37:32;6.32;;;3.03;;
13795;SDS011;40911;51.552;9.874;2023-08-21T12:39:53;3.30;;;2.60;;
13795;SDS011;40911;51.552;9.874;2023-08-21T12:42:15;6.18;;;2.85;;
13795;SDS011;40911;51.552;9.874;2023-08-21T12:44:37;9.85;;;2.90;;
13795;SDS011;40911;51.552;9.874;2023-08-21T12:47:00;7.35;;;2.92;;
13795;SDS011;40911;51.552;9.874;2023-08-21T12:49:22;7.05;;;2.85;;
13795;SDS011;40911;51.552;9.874;2023-08-21T12:51:44;5.18;;;2.78;;
13795;SDS011;40911;51.552;9.874;2023-08-21T12:54:05;4.55;;;3.00;;
13795;SDS011;40911;51.552;9.874;2023-08-21T12:56:29;6.13;;;3.10;;
13795;SDS011;40911;51.552;9.874;2023-08-21T12:58:50;5.28;;;3.05;;
13795;SDS011;40911;51.552;9.874;2023-08-21T13:01:12;5.57;;;2.75;;
13795;SDS011;40911;51.552;9.874;2023-08-21T13:03:36;4.63;;;2.70;;
13795;SDS011;40911;51.552;9.874;2023-08-21T13:05:57;7.65;;;2.70;;
13795;SDS011;40911;51.552;9.874;2023-08-21T13:08:20;4.57;;;2.70;;
13795;SDS011;40911;51.552;9.874;2023-08-21T13:10:42;9.75;;;3.35;;
13795;SDS011;40911;51.552;9.874;2023-08-21T13:13:04;6.53;;;3.03;;
13795;SDS011;40911;51.552;9.874;2023-08-21T13:15:25;3.80;;;2.72;;
13795;SDS011;40911;51.552;9.874;2023-08-21T13:17:47;5.00;;;2.90;;
13795;SDS011;40911;51.552;9.874;2023-08-21T13:20:11;3.88;;;2.83;;
13795;SDS011;40911;51.552;9.874;2023-08-21T13:22:43;6.28;;;2.70;;
13795;SDS011;40911;51.552;9.874;2023-08-21T13:25:06;5.40;;;2.65;;
13795;SDS011;40911;51.552;9.874;2023-08-21T13:27:28;7.50;;;3.03;;
13795;SDS011;40911;51.552;9.874;2023-08-21T13:29:49;4.25;;;2.70;;
13795;SDS011;40911;51.552;9.874;2023-08-21T13:32:11;5.45;;;2.80;;
13795;SDS011;40911;51.552;9.874;2023-08-21T13:34:33;6.50;;;2.97;;
13795;SDS011;40911;51.552;9.874;2023-08-21T13:36:56;7.80;;;2.85;;
13795;SDS011;40911;51.552;9.874;2023-08-21T13:39:17;3.92;;;3.00;;
13795;SDS011;40911;51.552;9.874;2023-08-21T13:41:39;5.22;;;2.67;;
13795;SDS011;40911;51.552;9.874;2023-08-21T13:44:01;4.93;;;2.97;;
13795;SDS011;40911;51.552;9.874;2023-08-21T13:46:23;4.38;;;3.00;;
13795;SDS011;40911;51.552;9.874;2023-08-21T13:48:45;4.68;;;2.60;;
13795;SDS011;40911;51.552;9.874;2023-08-21T13:51:06;5.10;;;2.85;;
13795;SDS011;40911;51.552;9.874;2023-08-21T13:53:29;4.88;;;2.65;;
13795;SDS011;40911;51.552;9.874;2023-08-21T13:55:51;6.63;;;2.60;;
13795;SDS011;40911;51.552;9.874;2023-08-21T13:58:13;3.78;;;2.50;;
13795;SDS011;40911;51.552;9.874;2023-08-21T14:00:35;6.38;;;2.60;;
13795;SDS011;40911;51.552;9.874;2023-08-21T14:02:56;3.92;;;2.63;;
13795;SDS011;40911;51.552;9.874;2023-08-21T14:05:18;4.70;;;2.88;;
13795;SDS011;40911;51.552;9.874;2023-08-21T14:07:40;3.75;;;2.60;;
13795;SDS011;40911;51.552;9.874;2023-08-21T14:10:03;5.25;;;2.60;;
13795;SDS011;40911;51.552;9.874;2023-08-21T14:12:27;3.78;;;2.50;;
13795;SDS011;40911;51.552;9.874;2023-08-21T14:14:50;4.47;;;2.72;;
13795;SDS011;40911;51.552;9.874;2023-08-21T14:17:12;4.72;;;2.53;;
13795;SDS011;40911;51.552;9.874;2023-08-21T14:19:33;2.72;;;2.20;;
13795;SDS011;40911;51.552;9.874;2023-08-21T14:21:56;4.57;;;2.70;;
13795;SDS011;40911;51.552;9.874;2023-08-21T14:24:19;3.78;;;2.50;;
13795;SDS011;40911;51.552;9.874;2023-08-21T14:26:42;5.38;;;2.58;;
13795;SDS011;40911;51.552;9.874;2023-08-21T14:29:03;6.13;;;2.60;;
13795;SDS011;40911;51.552;9.874;2023-08-21T14:31:25;3.55;;;2.40;;
13795;SDS011;40911;51.552;9.874;2023-08-21T14:33:47;5.05;;;2.72;;
13795;SDS011;40911;51.552;9.874;2023-08-21T14:36:09;3.38;;;2.20;;
13795;SDS011;40911;51.552;9.874;2023-08-21T14:38:30;3.70;;;2.53;;
13795;SDS011;40911;51.552;9.874;2023-08-21T14:40:52;2.83;;;2.03;;
13795;SDS011;40911;51.552;9.874;2023-08-21T14:43:15;3.95;;;2.28;;
13795;SDS011;40911;51.552;9.874;2023-08-21T14:45:37;6.13;;;2.45;;
13795;SDS011;40911;51.552;9.874;2023-08-21T14:47:59;4.50;;;2.70;;
13795;SDS011;40911;51.552;9.874;2023-08-21T14:50:21;4.90;;;2.42;;
13795;SDS011;40911;51.552;9.874;2023-08-21T14:52:43;3.90;;;2.50;;
13795;SDS011;40911;51.552;9.874;2023-08-21T14:55:04;4.30;;;2.42;;